Portada
METAR-TAF:

METAR-TAF

Aeropuertos :

Aeropuerto de Ilo

Ilo, Perú

latitud: 17-41-45S, longitud: 071-20-35W, altitud: 22 m

Observación

El informe se hizo hace 1 hora y 0 minutos, a las 16:00 UTC
Viento 5 kt del oeste-suroeste
Temperatura 17°C
Humedad 72%
Presión 1018 hPa
Visibilidad: 8000 m
Cielo cubierto a una altura de 2000 ft

METAR: SPLO 151600Z 24005KT 8000 OVC020 17/12 Q1018 RMK PP000

Hora: 12:00 (17:00 UTC)

Pronóstico

El informe se hizo hace 5 horas y 40 minutos, a las 11:20 UTC
Pronóstico válido del 15 a las 12 UTC al 16 a las 12 UTC
Viento 5 kt del sur-sureste
Visibilidad: 8000 m
Cielo cubierto a una altura de 1700 ft
Temporalmente
del 15 a las 12 UTC al 15 a las 14 UTC
Visibilidad: 5000 m
neblina
A partir de las 15 a las 1700 UTC
Viento 6 kt del sur
Visibilidad 10 km o más
Cielo nuboso a una altura de 2000 ft

TAF: SPLO 151120Z 1512/1612 15005KT 8000 OVC017 TX18/1519Z TN15/1610Z TEMPO 1512/1514 5000 BR FM151700 19006KT 9999 BKN020

Observaciones y pronósticos meteorológicos de más de 4000 aeropuertos (mensajes METAR y TAF).

Los puntos amarillos y rojos representan las estaciones disponibles.

Ponga el ratón en el punto deseado para ver el nombre de la estación.

Haga clic para ver las observaciones y los pronósticos meteorológicos.

Para cambiar el mapa : haga clic en los botones verdes con una cruz de color negro para hacer un zoom, en el botón verde con un guión para alejar o en las flechas verdes para mapas adyacentes.


METAR-TAF: